Time;durP1;ratioP1;P1;durP2;ratioP2;P2;SDS_P1;SDS_P2;PMS_P1;PMS_P2;Temp;Humidity;BMP_temperature;BMP_pressure;BME280_temperature;BME280_humidity;BME280_pressure;Samples;Min_cycle;Max_cycle;Signal;HPM_P1;HPM_P2
2021/10/29 10:43:42;;;;;;;13.75;7.00;;;30.00;99.90;;;;;;4205297;28;20052;-69
2021/10/29 10:45:58;;;;;;;12.55;7.30;;;29.90;99.90;;;;;;4206470;28;20061;-70
2021/10/29 10:48:14;;;;;;;10.52;6.50;;;30.00;99.90;;;;;;4203144;28;20084;-68
2021/10/29 10:50:25;;;;;;;17.88;7.32;;;30.00;99.90;;;;;;4193636;28;20454;-68
2021/10/29 10:52:33;;;;;;;8.85;6.70;;;29.80;99.90;;;;;;4201341;28;20078;-65
2021/10/29 11:02:19;;;;;;;10.73;6.43;;;29.80;99.90;;;;;;4203372;28;20557;-66
2021/10/29 11:12:00;;;;;;;17.73;7.20;;;29.60;99.90;;;;;;4200508;28;20872;-67
2021/10/29 11:14:04;;;;;;;10.90;6.40;;;29.60;99.90;;;;;;4194673;28;20044;-67
2021/10/29 11:16:09;;;;;;;14.32;6.35;;;29.40;99.90;;;;;;4202663;28;20036;-67
2021/10/29 11:18:29;;;;;;;13.77;6.88;;;29.50;99.90;;;;;;4195883;28;20131;-67
2021/10/29 11:20:54;;;;;;;13.05;7.10;;;29.30;99.90;;;;;;4201526;28;20155;-67
2021/10/29 11:23:03;;;;;;;13.00;7.28;;;29.20;99.90;;;;;;4203352;28;20059;-66
2021/10/29 11:25:07;;;;;;;10.27;6.53;;;29.10;99.90;;;;;;4199018;28;20102;-68
2021/10/29 11:27:15;;;;;;;10.82;6.55;;;29.20;99.90;;;;;;4186452;28;20063;-69
2021/10/29 11:29:20;;;;;;;10.00;6.40;;;29.30;99.90;;;;;;4196555;28;20094;-69
2021/10/29 11:31:28;;;;;;;9.10;6.18;;;29.50;99.90;;;;;;4191625;28;20044;-68
2021/10/29 11:33:33;;;;;;;10.45;6.43;;;29.40;99.90;;;;;;4203840;28;20558;-69
2021/10/29 11:35:53;;;;;;;14.95;6.45;;;29.40;99.90;;;;;;4197220;28;20050;-68
2021/10/29 11:37:57;;;;;;;10.57;6.10;;;29.20;99.90;;;;;;4197294;28;20139;-69
2021/10/29 11:40:04;;;;;;;10.68;6.18;;;29.20;99.90;;;;;;4198227;28;20079;-69
2021/10/29 11:42:10;;;;;;;11.82;6.50;;;29.20;99.90;;;;;;4195719;28;20088;-69
2021/10/29 11:44:16;;;;;;;9.63;5.90;;;29.20;99.90;;;;;;4192062;28;20830;-69
2021/10/29 11:46:23;;;;;;;9.52;6.13;;;29.10;99.90;;;;;;4192739;28;20128;-70
2021/10/29 11:48:28;;;;;;;13.43;6.20;;;29.00;99.90;;;;;;4190617;28;20045;-66
2021/10/29 11:50:32;;;;;;;7.32;5.70;;;28.90;99.90;;;;;;4188858;28;20128;-67
2021/10/29 11:52:38;;;;;;;13.40;6.68;;;28.80;99.90;;;;;;4191413;28;20054;-67
2021/10/29 11:54:47;;;;;;;13.35;6.55;;;28.80;99.90;;;;;;4183853;28;20037;-67
2021/10/29 11:59:11;;;;;;;9.73;6.57;;;29.00;99.90;;;;;;4193245;28;20049;-68
2021/10/29 12:08:28;;;;;;;9.88;7.15;;;29.20;99.90;;;;;;4193180;28;20502;-68
2021/10/29 12:10:33;;;;;;;8.68;6.40;;;29.10;99.90;;;;;;4190619;28;20103;-68
2021/10/29 12:12:39;;;;;;;11.48;6.90;;;29.10;99.90;;;;;;4193499;28;20045;-68
2021/10/29 12:14:45;;;;;;;14.05;6.90;;;29.10;99.90;;;;;;4187439;28;20072;-69
2021/10/29 12:16:50;;;;;;;8.93;6.80;;;29.10;99.90;;;;;;4186070;28;20052;-68
2021/10/29 12:19:00;;;;;;;14.13;7.22;;;29.00;99.90;;;;;;4192610;28;20036;-68
2021/10/29 12:21:06;;;;;;;8.68;6.85;;;28.90;99.90;;;;;;4192171;28;20074;-70
2021/10/29 12:23:17;;;;;;;17.50;7.75;;;28.80;99.90;;;;;;4189590;28;20056;-70
2021/10/29 12:27:37;;;;;;;16.85;7.55;;;28.90;99.90;;;;;;4188904;28;20138;-69
2021/10/29 12:29:44;;;;;;;10.82;7.40;;;28.80;99.90;;;;;;4189192;28;20127;-70
2021/10/29 12:53:22;;;;;;;16.27;6.90;;;28.90;99.90;;;;;;4191536;28;20045;-69
2021/10/29 13:02:24;;;;;;;12.85;7.20;;;28.60;99.90;;;;;;4192819;28;20062;-68
2021/10/29 13:04:38;;;;;;;12.55;7.03;;;28.50;99.90;;;;;;4192592;28;20098;-67
2021/10/29 13:06:45;;;;;;;9.15;6.30;;;28.40;99.90;;;;;;4191835;28;20492;-69
2021/10/29 13:08:50;;;;;;;9.18;6.60;;;28.30;99.90;;;;;;4192380;28;20040;-70
2021/10/29 13:10:56;;;;;;;10.05;7.00;;;28.40;99.90;;;;;;4191609;28;20467;-69
2021/10/29 13:13:12;;;;;;;11.38;6.88;;;28.40;99.90;;;;;;4190697;28;20504;-68
2021/10/29 13:15:19;;;;;;;11.13;6.68;;;28.50;99.90;;;;;;4210042;28;20507;-70
2021/10/29 13:17:36;;;;;;;13.85;7.10;;;28.50;99.90;;;;;;4191647;28;20080;-68
2021/10/29 13:28:57;;;;;;;10.27;7.97;;;28.50;99.90;;;;;;4189030;28;20425;-70
2021/10/29 13:52:23;;;;;;;16.90;10.90;;;28.40;99.90;;;;;;4188095;28;20453;-68
2021/10/29 14:30:54;;;;;;;23.00;13.10;;;27.90;99.90;;;;;;4188537;28;20102;-69
2021/10/29 14:33:13;;;;;;;19.27;14.25;;;27.70;99.90;;;;;;4185673;28;20037;-69
2021/10/29 14:35:23;;;;;;;18.42;13.73;;;27.60;99.90;;;;;;4186724;28;20041;-69
2021/10/29 14:37:38;;;;;;;23.25;12.80;;;27.80;99.90;;;;;;4190584;28;20040;-69
2021/10/29 14:42:26;;;;;;;21.70;13.25;;;28.00;99.90;;;;;;4190091;28;20048;-70
2021/10/29 14:44:27;;;;;;;26.40;13.40;;;28.00;99.90;;;;;;4184781;28;20511;-69
2021/10/29 14:46:40;;;;;;;20.67;13.38;;;28.00;99.90;;;;;;4189460;28;20040;-70
2021/10/29 14:53:34;;;;;;;22.08;13.20;;;27.90;99.90;;;;;;4195978;28;20044;-70
2021/10/29 15:07:13;;;;;;;22.13;12.88;;;27.80;99.90;;;;;;4187654;28;20117;-68
2021/10/29 15:25:32;;;;;;;19.65;12.30;;;27.60;99.90;;;;;;4195586;28;20048;-70
2021/10/29 15:29:57;;;;;;;21.63;12.82;;;27.70;99.90;;;;;;4190888;28;20128;-71
2021/10/29 15:32:24;;;;;;;20.92;12.70;;;27.60;99.90;;;;;;4193693;28;20048;-70
2021/10/29 15:45:52;;;;;;;18.13;10.57;;;27.50;99.90;;;;;;4191988;28;20075;-69
2021/10/29 15:50:17;;;;;;;21.77;11.32;;;27.60;99.90;;;;;;4193109;28;20136;-69
2021/10/29 15:52:21;;;;;;;17.73;11.88;;;27.40;99.90;;;;;;4189154;28;20044;-69
2021/10/29 15:54:25;;;;;;;14.75;10.45;;;27.30;99.90;;;;;;4189689;28;20048;-69
2021/10/29 15:56:40;;;;;;;12.40;10.60;;;27.30;99.90;;;;;;4190720;28;20049;-69
2021/10/29 16:03:05;;;;;;;14.27;10.77;;;27.30;99.90;;;;;;4189504;28;20086;-69
2021/10/29 16:18:50;;;;;;;14.05;9.32;;;27.10;99.90;;;;;;4189582;28;20132;-70
2021/10/29 16:20:54;;;;;;;13.73;9.43;;;27.20;99.90;;;;;;4192401;28;20406;-70
2021/10/29 16:23:01;;;;;;;13.15;9.85;;;27.30;99.90;;;;;;4186641;28;20826;-69
2021/10/29 16:29:54;;;;;;;13.20;9.23;;;27.40;99.90;;;;;;4190758;28;20053;-69
2021/10/29 16:32:08;;;;;;;13.45;9.75;;;27.50;99.90;;;;;;4196010;28;20146;-69
2021/10/29 16:34:13;;;;;;;13.30;9.20;;;27.50;99.90;;;;;;4184413;28;20426;-70
2021/10/29 16:36:19;;;;;;;13.55;9.65;;;27.60;99.90;;;;;;4195774;28;20048;-70
2021/10/29 16:38:24;;;;;;;13.23;8.88;;;27.70;99.90;;;;;;4195532;28;20520;-70
2021/10/29 16:40:28;;;;;;;11.68;9.10;;;27.70;99.90;;;;;;4192791;28;20040;-70
2021/10/29 16:42:33;;;;;;;11.88;8.48;;;27.70;99.90;;;;;;4188364;28;20052;-69
2021/10/29 16:44:38;;;;;;;14.38;8.93;;;27.70;99.90;;;;;;4187235;28;20040;-70
2021/10/29 16:46:43;;;;;;;13.77;9.25;;;27.60;99.90;;;;;;4198354;28;20247;-70
2021/10/29 16:48:50;;;;;;;13.18;9.82;;;27.60;99.90;;;;;;4192206;28;20515;-70
2021/10/29 16:50:56;;;;;;;12.82;9.20;;;27.60;99.90;;;;;;4194386;28;20435;-70
2021/10/29 16:53:00;;;;;;;15.25;8.98;;;27.60;99.90;;;;;;4187987;28;20071;-70
2021/10/29 16:55:06;;;;;;;13.68;9.57;;;27.60;99.90;;;;;;4189825;28;20055;-70
2021/10/29 16:57:13;;;;;;;12.52;8.82;;;27.70;99.90;;;;;;4191468;28;20785;-70
2021/10/29 16:59:18;;;;;;;13.18;9.45;;;27.70;99.90;;;;;;4192849;28;20047;-70
2021/10/29 17:01:22;;;;;;;16.33;11.65;;;27.70;99.90;;;;;;4190640;28;20036;-70
2021/10/29 17:03:28;;;;;;;17.17;12.48;;;27.70;99.90;;;;;;4186563;28;20041;-69
2021/10/29 17:05:32;;;;;;;20.70;13.55;;;27.70;99.90;;;;;;4188008;28;20477;-69
2021/10/29 17:07:37;;;;;;;25.83;13.77;;;27.70;99.90;;;;;;4192825;28;20048;-68
2021/10/29 17:09:41;;;;;;;25.30;14.32;;;27.70;99.90;;;;;;4192989;28;20044;-69
2021/10/29 17:11:46;;;;;;;24.98;14.32;;;27.70;99.90;;;;;;4191586;28;20060;-69
2021/10/29 17:13:53;;;;;;;19.17;14.23;;;27.60;99.90;;;;;;4182554;28;20045;-69
2021/10/29 17:15:57;;;;;;;20.52;13.63;;;27.60;99.90;;;;;;4200421;28;20486;-69
2021/10/29 17:18:03;;;;;;;21.83;14.43;;;27.60;99.90;;;;;;4200954;28;20498;-69
2021/10/29 17:20:09;;;;;;;22.00;15.10;;;27.60;99.90;;;;;;4192765;28;20067;-69
2021/10/29 17:22:14;;;;;;;24.08;14.63;;;27.60;99.90;;;;;;4184228;28;20122;-69
2021/10/29 17:24:19;;;;;;;20.33;14.25;;;27.60;99.90;;;;;;4184662;28;20044;-69
2021/10/29 17:26:24;;;;;;;24.23;14.88;;;27.50;99.90;;;;;;4186685;28;20382;-69
2021/10/29 17:28:28;;;;;;;22.17;14.32;;;27.50;99.90;;;;;;4187023;28;20090;-70
2021/10/29 17:30:33;;;;;;;21.33;14.95;;;27.50;99.90;;;;;;4191807;28;20125;-70
2021/10/29 17:32:39;;;;;;;21.15;14.50;;;27.50;99.90;;;;;;4187824;28;20098;-69
2021/10/29 17:34:44;;;;;;;19.58;13.35;;;27.50;99.90;;;;;;4183287;28;20051;-69
2021/10/29 17:36:49;;;;;;;25.70;14.98;;;27.40;99.90;;;;;;4193156;28;20072;-69
2021/10/29 17:38:55;;;;;;;21.33;13.98;;;27.40;99.90;;;;;;4190684;28;20227;-69
2021/10/29 17:41:00;;;;;;;21.40;14.13;;;27.50;99.90;;;;;;4191394;28;20506;-69
2021/10/29 17:43:04;;;;;;;21.65;13.73;;;27.50;99.90;;;;;;4184917;28;20253;-69
2021/10/29 17:45:13;;;;;;;19.63;14.02;;;27.40;99.90;;;;;;4187687;28;20086;-69
2021/10/29 17:47:21;;;;;;;19.50;13.65;;;27.40;99.90;;;;;;4198868;28;20049;-70
2021/10/29 17:49:25;;;;;;;20.88;13.80;;;27.50;99.90;;;;;;4200224;28;20074;-69
2021/10/29 17:51:30;;;;;;;17.55;13.98;;;27.40;99.90;;;;;;4192049;28;20059;-69
2021/10/29 17:53:35;;;;;;;20.30;13.75;;;27.30;99.90;;;;;;4183100;28;20129;-69
2021/10/29 17:55:40;;;;;;;25.00;13.82;;;27.30;99.90;;;;;;4188147;28;20807;-69
2021/10/29 17:57:45;;;;;;;19.13;13.73;;;27.40;99.90;;;;;;4185561;28;20045;-69
2021/10/29 17:59:50;;;;;;;22.95;13.05;;;27.40;99.90;;;;;;4191740;28;20084;-69
2021/10/29 18:01:54;;;;;;;21.42;12.93;;;27.40;99.90;;;;;;4190129;28;20056;-70
2021/10/29 18:04:01;;;;;;;19.30;13.88;;;27.40;99.90;;;;;;4180099;28;20462;-69
2021/10/29 18:06:07;;;;;;;21.20;13.70;;;27.40;99.90;;;;;;4191783;28;20487;-69
2021/10/29 18:08:16;;;;;;;19.15;13.57;;;27.40;99.90;;;;;;4190904;28;20675;-68
2021/10/29 18:10:21;;;;;;;18.77;13.07;;;27.40;99.90;;;;;;4192452;28;20182;-69
2021/10/29 18:12:26;;;;;;;19.58;13.88;;;27.40;99.90;;;;;;4189514;28;20048;-69
2021/10/29 18:14:30;;;;;;;19.77;12.38;;;27.40;99.90;;;;;;4182254;28;20051;-69
2021/10/29 18:16:35;;;;;;;20.70;13.80;;;27.40;99.90;;;;;;4195057;28;20079;-69
2021/10/29 18:18:39;;;;;;;19.98;12.98;;;27.30;99.90;;;;;;4194572;28;20123;-69
2021/10/29 18:20:44;;;;;;;26.75;12.60;;;27.30;99.90;;;;;;4191855;28;20040;-69
2021/10/29 18:22:48;;;;;;;20.60;12.52;;;27.40;99.90;;;;;;4191439;28;20465;-69
2021/10/29 18:24:53;;;;;;;16.33;11.73;;;27.40;99.90;;;;;;4188593;28;20072;-69
2021/10/29 18:26:57;;;;;;;19.15;11.88;;;27.40;99.90;;;;;;4197654;28;20048;-69
2021/10/29 18:29:06;;;;;;;16.15;11.65;;;27.40;99.90;;;;;;4191863;28;20579;-70
2021/10/29 18:31:12;;;;;;;17.23;11.88;;;27.40;99.90;;;;;;4191704;28;20127;-69
2021/10/29 18:33:16;;;;;;;15.10;12.40;;;27.40;99.90;;;;;;4187063;28;20133;-70
2021/10/29 18:35:22;;;;;;;15.02;11.10;;;27.40;99.90;;;;;;4189549;28;20482;-70
2021/10/29 18:37:27;;;;;;;18.85;11.55;;;27.40;99.90;;;;;;4191556;28;20036;-70
2021/10/29 18:39:33;;;;;;;15.35;11.32;;;27.40;99.90;;;;;;4190818;28;20079;-70
2021/10/29 18:41:37;;;;;;;18.02;12.00;;;27.40;99.90;;;;;;4189883;28;20049;-70
2021/10/29 18:43:42;;;;;;;18.60;11.43;;;27.30;99.90;;;;;;4183359;28;20057;-70
2021/10/29 18:45:46;;;;;;;14.07;10.32;;;27.40;99.90;;;;;;4190606;28;20359;-69
2021/10/29 18:47:51;;;;;;;15.63;11.38;;;27.40;99.90;;;;;;4191969;28;20135;-69
2021/10/29 18:49:55;;;;;;;14.70;10.52;;;27.30;99.90;;;;;;4191891;28;20049;-70
2021/10/29 18:52:01;;;;;;;16.35;10.75;;;27.40;99.90;;;;;;4199233;28;20044;-70
2021/10/29 18:54:07;;;;;;;15.23;10.68;;;27.30;99.90;;;;;;4184833;28;20093;-70
2021/10/29 18:56:12;;;;;;;13.90;10.65;;;27.30;99.90;;;;;;4192667;28;20044;-69
2021/10/29 18:58:16;;;;;;;17.17;11.02;;;27.10;99.90;;;;;;4193511;28;20442;-69
2021/10/29 19:00:21;;;;;;;12.80;10.45;;;27.10;99.90;;;;;;4191922;28;20037;-69
2021/10/29 19:02:25;;;;;;;14.30;10.45;;;27.10;99.90;;;;;;4190552;28;20083;-69
2021/10/29 19:04:30;;;;;;;14.77;10.60;;;27.20;99.90;;;;;;4192031;28;20052;-71
2021/10/29 19:06:34;;;;;;;15.63;10.18;;;27.20;99.90;;;;;;4197808;28;20497;-69
2021/10/29 19:08:40;;;;;;;16.20;10.43;;;27.20;99.90;;;;;;4192781;28;20048;-69
2021/10/29 19:10:44;;;;;;;19.27;11.88;;;27.20;99.90;;;;;;4195910;28;20128;-69
2021/10/29 19:12:49;;;;;;;15.32;10.45;;;27.20;99.90;;;;;;4190131;28;20139;-69
2021/10/29 19:14:53;;;;;;;16.55;10.10;;;27.20;99.90;;;;;;4188476;28;20041;-69
2021/10/29 19:16:58;;;;;;;18.38;11.13;;;27.20;99.90;;;;;;4197002;28;20124;-69
2021/10/29 19:19:03;;;;;;;13.50;9.93;;;27.10;99.90;;;;;;4195715;28;20052;-69
2021/10/29 19:21:08;;;;;;;14.35;10.30;;;27.00;99.90;;;;;;4197798;28;20495;-69
2021/10/29 19:23:12;;;;;;;12.60;9.50;;;27.00;99.90;;;;;;4187948;28;20051;-69
2021/10/29 19:25:17;;;;;;;17.13;10.23;;;27.00;99.90;;;;;;4191476;28;20587;-72
2021/10/29 19:27:21;;;;;;;14.65;10.55;;;27.10;99.90;;;;;;4200983;28;20411;-69
2021/10/29 19:29:25;;;;;;;13.50;10.55;;;27.20;99.90;;;;;;4194468;28;20090;-69
2021/10/29 19:31:30;;;;;;;12.60;9.90;;;27.20;99.90;;;;;;4192084;28;20507;-69
2021/10/29 19:33:34;;;;;;;13.57;9.77;;;27.20;99.90;;;;;;4192291;28;20053;-69
2021/10/29 19:35:39;;;;;;;14.15;9.35;;;27.10;99.90;;;;;;4190736;28;20044;-69
2021/10/29 19:37:53;;;;;;;12.85;9.50;;;27.10;99.90;;;;;;4194237;28;20127;-69
2021/10/29 19:40:12;;;;;;;15.35;9.85;;;27.10;99.90;;;;;;4200222;28;20094;-70
2021/10/29 19:42:16;;;;;;;15.65;10.57;;;27.10;99.90;;;;;;4191243;28;20469;-69
2021/10/29 19:44:21;;;;;;;12.80;10.48;;;27.10;99.90;;;;;;4192121;28;20109;-70
2021/10/29 19:46:25;;;;;;;11.68;9.02;;;27.10;99.90;;;;;;4193769;28;20139;-70
2021/10/29 19:48:30;;;;;;;16.52;10.55;;;27.10;99.90;;;;;;4193038;28;20044;-70
2021/10/29 19:50:35;;;;;;;13.65;10.20;;;27.10;99.90;;;;;;4196517;28;20071;-70
2021/10/29 19:52:39;;;;;;;15.27;10.25;;;27.10;99.90;;;;;;4189927;28;20366;-69
2021/10/29 19:54:44;;;;;;;15.43;9.98;;;27.10;99.90;;;;;;4192431;28;20071;-69
2021/10/29 19:56:49;;;;;;;12.32;9.52;;;27.10;99.90;;;;;;4197607;28;20083;-70
2021/10/29 19:58:53;;;;;;;13.73;9.90;;;27.10;99.90;;;;;;4192939;28;20090;-69
2021/10/29 20:00:58;;;;;;;12.10;9.15;;;27.10;99.90;;;;;;4193861;28;20125;-69
2021/10/29 20:03:02;;;;;;;14.50;9.77;;;27.00;99.90;;;;;;4188361;28;20058;-68
2021/10/29 20:05:07;;;;;;;15.77;9.95;;;27.00;99.90;;;;;;4190883;28;20510;-69
2021/10/29 20:07:12;;;;;;;13.50;9.98;;;27.00;99.90;;;;;;4193410;28;20080;-69
2021/10/29 20:09:18;;;;;;;12.95;9.77;;;27.10;99.90;;;;;;4191171;28;20152;-68
2021/10/29 20:11:22;;;;;;;18.50;10.60;;;27.10;99.90;;;;;;4200144;28;20048;-69
2021/10/29 20:13:26;;;;;;;17.75;10.40;;;27.10;99.90;;;;;;4182547;28;20510;-69
2021/10/29 20:15:33;;;;;;;15.07;10.35;;;27.00;99.90;;;;;;4190817;28;20102;-69
2021/10/29 20:17:40;;;;;;;14.13;10.02;;;27.00;99.90;;;;;;4193023;28;20052;-69
2021/10/29 20:19:45;;;;;;;12.80;9.93;;;27.00;99.90;;;;;;4190826;28;20491;-69
2021/10/29 20:21:51;;;;;;;14.38;10.63;;;27.00;99.90;;;;;;4193967;28;20189;-70
2021/10/29 20:23:57;;;;;;;16.17;10.57;;;27.00;99.90;;;;;;4185306;28;20054;-70
2021/10/29 20:26:02;;;;;;;14.30;10.10;;;27.00;99.90;;;;;;4193099;28;20490;-70
2021/10/29 20:28:08;;;;;;;17.13;10.70;;;27.00;99.90;;;;;;4193489;28;20403;-70
2021/10/29 20:30:13;;;;;;;14.18;10.65;;;27.00;99.90;;;;;;4193501;28;20070;-69
2021/10/29 20:32:20;;;;;;;14.18;10.25;;;27.00;99.90;;;;;;4189520;28;20091;-69
2021/10/29 20:34:25;;;;;;;16.17;10.25;;;27.00;99.90;;;;;;4188081;28;20122;-69
2021/10/29 20:36:30;;;;;;;13.35;10.27;;;27.00;99.90;;;;;;4194343;28;20044;-69
2021/10/29 20:38:34;;;;;;;16.13;10.40;;;27.00;99.90;;;;;;4192896;28;20045;-70
2021/10/29 20:40:42;;;;;;;15.95;9.82;;;27.00;99.90;;;;;;4193284;28;20054;-70
2021/10/29 20:42:50;;;;;;;16.55;10.50;;;26.90;99.90;;;;;;4185654;28;20049;-69
2021/10/29 20:44:55;;;;;;;16.95;10.18;;;26.90;99.90;;;;;;4185061;28;20048;-70
2021/10/29 20:47:07;;;;;;;11.35;9.40;;;26.90;99.90;;;;;;4186509;28;20087;-69
2021/10/29 20:49:14;;;;;;;15.93;10.15;;;26.90;99.90;;;;;;4185663;28;20092;-69
2021/10/29 20:51:21;;;;;;;15.90;10.20;;;26.90;99.90;;;;;;4194041;28;20053;-69
2021/10/29 20:53:27;;;;;;;11.80;9.77;;;26.80;99.90;;;;;;4186511;28;20583;-69
2021/10/29 20:55:32;;;;;;;16.30;9.65;;;26.80;99.90;;;;;;4188956;28;20063;-69
2021/10/29 20:57:38;;;;;;;16.02;9.75;;;26.80;99.90;;;;;;4191469;28;20151;-69
2021/10/29 20:59:44;;;;;;;12.35;9.43;;;26.80;99.90;;;;;;4192499;28;20132;-69
2021/10/29 21:01:50;;;;;;;22.65;17.92;;;26.80;99.90;;;;;;4192563;28;20426;-69
2021/10/29 21:04:02;;;;;;;33.90;19.30;;;26.80;99.90;;;;;;4185163;28;20183;-69
2021/10/29 21:06:08;;;;;;;23.83;15.75;;;26.80;99.90;;;;;;4190033;28;20710;-69
2021/10/29 21:08:12;;;;;;;14.68;11.15;;;26.80;99.90;;;;;;4193044;28;20080;-69
2021/10/29 21:10:17;;;;;;;15.32;12.52;;;26.80;99.90;;;;;;4193500;28;20049;-69
2021/10/29 21:12:22;;;;;;;16.00;12.45;;;26.80;99.90;;;;;;4190168;28;20048;-69
2021/10/29 21:14:26;;;;;;;19.25;13.48;;;26.80;99.90;;;;;;4180054;28;20049;-69
2021/10/29 21:16:31;;;;;;;18.83;13.68;;;26.80;99.90;;;;;;4193568;28;20045;-70
2021/10/29 21:18:36;;;;;;;13.93;11.55;;;26.80;99.90;;;;;;4189908;28;20036;-70
2021/10/29 21:20:41;;;;;;;16.33;11.15;;;26.80;99.90;;;;;;4191622;28;20043;-69
2021/10/29 21:22:46;;;;;;;16.83;10.43;;;26.70;99.90;;;;;;4187227;28;20044;-69
2021/10/29 21:24:51;;;;;;;14.07;10.27;;;26.70;99.90;;;;;;4186822;28;20356;-69
2021/10/29 21:26:55;;;;;;;13.82;10.30;;;26.70;99.90;;;;;;4192465;28;20103;-69
2021/10/29 21:29:01;;;;;;;14.35;9.88;;;26.70;99.90;;;;;;4192037;28;20593;-69
2021/10/29 21:31:25;;;;;;;14.15;10.05;;;26.60;99.90;;;;;;4197656;28;20048;-69
2021/10/29 21:33:30;;;;;;;15.65;9.93;;;26.70;99.90;;;;;;4185333;28;20449;-69
2021/10/29 21:35:37;;;;;;;14.18;9.13;;;26.60;99.90;;;;;;4191052;28;20032;-68
2021/10/29 21:37:43;;;;;;;19.00;14.38;;;26.70;99.90;;;;;;4199542;28;20422;-69
2021/10/29 21:39:47;;;;;;;14.63;11.43;;;26.60;99.90;;;;;;4199293;28;20074;-70
2021/10/29 21:41:53;;;;;;;14.50;9.00;;;26.60;99.90;;;;;;4192338;28;20491;-68
2021/10/29 21:43:58;;;;;;;17.15;9.38;;;26.60;99.90;;;;;;4181572;28;20139;-70
2021/10/29 21:46:03;;;;;;;12.23;8.50;;;26.60;99.90;;;;;;4196403;28;20052;-70
2021/10/29 21:48:07;;;;;;;11.88;8.50;;;26.60;99.90;;;;;;4190611;28;20067;-70
2021/10/29 21:50:12;;;;;;;11.43;7.65;;;26.70;99.90;;;;;;4190707;28;20151;-69
2021/10/29 21:52:18;;;;;;;8.57;7.20;;;26.60;99.90;;;;;;4196407;28;20132;-69
2021/10/29 21:54:23;;;;;;;10.35;7.45;;;26.60;99.90;;;;;;4185757;28;20048;-70
2021/10/29 21:56:27;;;;;;;11.15;7.28;;;26.60;99.90;;;;;;4192094;28;20571;-70
2021/10/29 21:58:32;;;;;;;10.75;6.95;;;26.60;99.90;;;;;;4192766;28;20041;-69
2021/10/29 22:00:46;;;;;;;13.10;8.55;;;26.60;99.90;;;;;;4191944;28;20049;-70
2021/10/29 22:02:51;;;;;;;11.77;7.55;;;26.60;99.90;;;;;;4188461;28;20075;-70
2021/10/29 22:04:56;;;;;;;12.15;7.03;;;26.60;99.90;;;;;;4187557;28;20079;-70
2021/10/29 22:07:00;;;;;;;11.27;6.63;;;26.60;99.90;;;;;;4191354;28;20048;-70
2021/10/29 22:09:05;;;;;;;9.85;6.32;;;26.60;99.90;;;;;;4194977;28;20499;-70
2021/10/29 22:11:09;;;;;;;9.25;6.25;;;26.60;99.90;;;;;;4191913;28;20399;-68
2021/10/29 22:13:13;;;;;;;11.50;6.93;;;26.60;99.90;;;;;;4184284;28;20084;-69
2021/10/29 22:15:18;;;;;;;9.57;6.93;;;26.60;99.90;;;;;;4188733;28;20056;-69
2021/10/29 22:17:23;;;;;;;12.00;8.15;;;26.60;99.90;;;;;;4200656;28;20036;-69
2021/10/29 22:19:27;;;;;;;14.25;11.98;;;26.60;99.90;;;;;;4195805;28;20044;-69
2021/10/29 22:21:32;;;;;;;16.95;11.02;;;26.50;99.90;;;;;;4194848;28;20044;-68
2021/10/29 22:23:36;;;;;;;11.00;7.90;;;26.50;99.90;;;;;;4185194;28;20048;-68
2021/10/29 22:25:42;;;;;;;8.30;6.72;;;26.50;99.90;;;;;;4191451;28;20506;-70
2021/10/29 22:27:48;;;;;;;11.38;8.48;;;26.50;99.90;;;;;;4191610;28;20461;-69
2021/10/29 22:29:53;;;;;;;8.23;7.43;;;26.50;99.90;;;;;;4191815;28;20053;-69
2021/10/29 22:31:58;;;;;;;8.80;7.35;;;26.50;99.90;;;;;;4191075;28;20067;-69
2021/10/29 22:34:03;;;;;;;8.88;6.05;;;26.50;99.90;;;;;;4182618;28;20110;-69
2021/10/29 22:36:08;;;;;;;7.85;7.00;;;26.50;99.90;;;;;;4197319;28;20075;-69
2021/10/29 22:38:12;;;;;;;10.70;9.60;;;26.50;99.90;;;;;;4193218;28;20044;-69
2021/10/29 22:40:17;;;;;;;13.55;11.77;;;26.50;99.90;;;;;;4191916;28;20159;-68
2021/10/29 22:42:21;;;;;;;16.83;12.90;;;26.50;99.90;;;;;;4193509;28;20469;-69
2021/10/29 22:44:25;;;;;;;16.83;13.68;;;26.50;99.90;;;;;;4186603;28;20135;-68
2021/10/29 22:46:30;;;;;;;14.68;11.98;;;26.40;99.90;;;;;;4200409;28;20097;-69
2021/10/29 22:48:34;;;;;;;12.13;10.82;;;26.30;99.90;;;;;;4193721;28;20434;-68
2021/10/29 22:50:39;;;;;;;15.00;12.48;;;26.40;99.90;;;;;;4196367;28;20046;-69
2021/10/29 22:52:46;;;;;;;24.17;16.65;;;26.40;99.90;;;;;;4195491;28;20110;-69
2021/10/29 22:54:50;;;;;;;17.98;14.85;;;26.40;99.90;;;;;;4191525;28;20075;-70
2021/10/29 22:56:55;;;;;;;16.38;11.20;;;26.40;99.90;;;;;;4192087;28;20054;-69
2021/10/29 22:58:59;;;;;;;17.48;12.35;;;26.50;99.90;;;;;;4202372;28;20040;-67
2021/10/29 23:01:06;;;;;;;16.95;14.13;;;26.40;99.90;;;;;;4198067;28;20487;-69
2021/10/29 23:03:11;;;;;;;15.80;13.85;;;26.40;99.90;;;;;;4186813;28;20048;-70
2021/10/29 23:05:19;;;;;;;14.27;12.77;;;26.40;99.90;;;;;;4189709;28;20049;-70
2021/10/29 23:07:24;;;;;;;8.98;6.97;;;26.40;99.90;;;;;;4195908;28;20043;-69
2021/10/29 23:09:29;;;;;;;9.80;5.57;;;26.40;99.90;;;;;;4189943;28;20049;-68
2021/10/29 23:11:35;;;;;;;5.38;4.18;;;26.40;99.90;;;;;;4192355;28;20498;-69
2021/10/29 23:13:40;;;;;;;4.63;3.47;;;26.40;99.90;;;;;;4179161;28;20147;-70
2021/10/29 23:15:44;;;;;;;7.40;4.55;;;26.40;99.90;;;;;;4192271;28;20044;-69
2021/10/29 23:17:49;;;;;;;8.23;6.07;;;26.40;99.90;;;;;;4191265;28;20043;-69
2021/10/29 23:19:54;;;;;;;9.55;7.88;;;26.30;99.90;;;;;;4194269;28;20097;-69
2021/10/29 23:21:58;;;;;;;10.30;7.45;;;26.40;99.90;;;;;;4191905;28;20056;-69
2021/10/29 23:24:03;;;;;;;6.18;5.57;;;26.40;99.90;;;;;;4182020;28;20605;-68
2021/10/29 23:26:27;;;;;;;6.82;5.38;;;26.30;99.90;;;;;;4195249;28;20055;-69
2021/10/29 23:28:32;;;;;;;7.28;4.72;;;26.40;99.90;;;;;;4197240;28;20049;-69
2021/10/29 23:30:36;;;;;;;6.45;5.03;;;26.40;99.90;;;;;;4191641;28;20083;-69
2021/10/29 23:32:41;;;;;;;7.35;5.40;;;26.40;99.90;;;;;;4185424;28;20277;-70
2021/10/29 23:34:46;;;;;;;6.07;5.15;;;26.40;99.90;;;;;;4184783;28;20060;-69
2021/10/29 23:36:51;;;;;;;8.27;5.32;;;26.40;99.90;;;;;;4196365;28;20537;-70
2021/10/29 23:38:56;;;;;;;7.28;4.95;;;26.40;99.90;;;;;;4196321;28;20446;-70
2021/10/29 23:41:01;;;;;;;6.05;5.07;;;26.40;99.90;;;;;;4194186;28;20431;-70
2021/10/29 23:43:10;;;;;;;7.13;5.05;;;26.40;99.90;;;;;;4188559;28;20053;-70
2021/10/29 23:45:15;;;;;;;9.80;5.20;;;26.50;99.90;;;;;;4198441;28;20414;-70
2021/10/29 23:47:20;;;;;;;7.63;5.05;;;26.50;99.90;;;;;;4201601;28;20816;-70
2021/10/29 23:49:24;;;;;;;6.82;4.80;;;26.50;99.90;;;;;;4195059;28;20127;-70
2021/10/29 23:51:29;;;;;;;5.75;4.22;;;26.40;99.90;;;;;;4193179;28;20047;-69
2021/10/29 23:53:34;;;;;;;5.57;4.15;;;26.50;99.90;;;;;;4192025;28;20281;-70
2021/10/29 23:55:38;;;;;;;8.40;4.10;;;26.50;99.90;;;;;;4186279;28;20040;-70
2021/10/29 23:57:42;;;;;;;4.70;3.75;;;26.50;99.90;;;;;;4194910;28;20495;-69
2021/10/29 23:59:47;;;;;;;5.22;3.45;;;26.50;99.90;;;;;;4191135;28;20140;-70
